Time;durP1;ratioP1;P1;durP2;ratioP2;P2;SDS_P1;SDS_P2;PMS_P1;PMS_P2;Temp;Humidity;BMP_temperature;BMP_pressure;BME280_temperature;BME280_humidity;BME280_pressure;Samples;Min_cycle;Max_cycle;Signal;HPM_P1;HPM_P2
2021/12/31 00:00:30;;;;;;;7.43;6.72;;;;;;;19.42;43.67;101973.06;5035126;28;20045;-77
2021/12/31 00:02:58;;;;;;;7.88;7.10;;;;;;;19.43;43.67;101977.47;5035452;28;20041;-77
2021/12/31 00:05:25;;;;;;;7.97;6.50;;;;;;;19.45;43.58;101972.88;5017621;28;20049;-77
2021/12/31 00:07:53;;;;;;;7.03;6.32;;;;;;;19.46;43.48;101977.28;5034908;28;20046;-77
2021/12/31 00:10:20;;;;;;;6.65;6.00;;;;;;;19.46;43.35;101970.06;5033609;28;20050;-77
2021/12/31 00:12:48;;;;;;;6.95;6.25;;;;;;;19.47;43.23;101976.28;5034675;28;20061;-77
2021/12/31 00:15:15;;;;;;;6.95;6.25;;;;;;;19.50;43.41;101976.09;5033231;28;20061;-77
2021/12/31 00:17:42;;;;;;;7.68;6.15;;;;;;;19.51;43.63;101980.50;5035335;28;20052;-77
2021/12/31 00:20:23;;;;;;;6.80;6.10;;;;;;;19.52;43.28;101982.22;5034710;28;20492;-77
2021/12/31 00:23:04;;;;;;;7.65;6.60;;;;;;;19.52;43.37;101984.88;5017713;28;20060;-77
2021/12/31 00:25:34;;;;;;;7.20;6.50;;;;;;;19.52;43.31;101977.69;5034656;28;20060;-77
2021/12/31 00:28:02;;;;;;;7.25;6.55;;;;;;;19.54;43.13;101977.59;5032969;28;20060;-77
2021/12/31 00:30:30;;;;;;;6.43;5.82;;;;;;;19.54;43.34;101972.22;5034807;28;20068;-77
2021/12/31 00:32:59;;;;;;;7.05;6.35;;;;;;;19.54;43.38;101972.22;5033486;28;20046;-77
2021/12/31 00:35:28;;;;;;;6.50;5.85;;;;;;;19.56;43.19;101972.13;5034860;28;20489;-77
2021/12/31 00:37:55;;;;;;;7.05;6.35;;;;;;;19.56;43.27;101969.44;5034639;28;20041;-77
2021/12/31 00:40:23;;;;;;;6.68;6.00;;;;;;;19.56;43.21;101972.13;5034631;28;20052;-77
2021/12/31 00:42:51;;;;;;;6.60;6.00;;;;;;;19.57;43.14;101965.78;5033514;28;20052;-77
2021/12/31 00:45:20;;;;;;;6.38;5.78;;;;;;;19.56;43.09;101970.28;5034455;28;20053;-77
2021/12/31 00:47:48;;;;;;;6.25;5.65;;;;;;;19.57;43.22;101977.41;5033229;28;20040;-77
2021/12/31 00:50:17;;;;;;;5.60;5.10;;;;;;;19.58;43.32;101979.13;5034385;28;20044;-77
2021/12/31 00:52:45;;;;;;;7.38;5.90;;;;;;;19.57;43.21;101982.78;5034457;28;20489;-77
2021/12/31 00:55:13;;;;;;;7.10;5.70;;;;;;;19.57;43.21;101985.47;5034472;28;20056;-77
2021/12/31 00:57:41;;;;;;;6.07;5.47;;;;;;;19.58;43.39;101983.63;5034020;28;20382;-77
2021/12/31 01:00:12;;;;;;;6.53;5.93;;;;;;;19.57;43.31;101990.84;5034222;28;20045;-77
2021/12/31 01:02:43;;;;;;;6.47;5.43;;;;;;;19.57;43.27;101995.31;5034777;28;20056;-76
2021/12/31 01:05:11;;;;;;;5.45;4.95;;;;;;;19.57;43.31;102004.25;5034459;28;20041;-77
2021/12/31 01:07:40;;;;;;;5.95;5.35;;;;;;;19.57;43.35;102004.25;5033138;28;20053;-77
2021/12/31 01:10:12;;;;;;;5.72;5.13;;;;;;;19.57;43.36;102004.25;5034340;28;20425;-77
2021/12/31 01:12:40;;;;;;;5.93;5.35;;;;;;;19.56;43.37;102002.50;5029610;28;20054;-77
2021/12/31 01:15:58;;;;;;;5.47;4.97;;;;;;;19.56;43.30;102005.19;5014409;28;20056;-77
2021/12/31 01:20:28;;;;;;;6.53;5.88;;;;;;;19.55;43.39;102003.50;5013706;28;20053;-77
2021/12/31 01:22:55;;;;;;;5.75;5.13;;;;;;;19.56;43.13;102007.03;5013913;28;20056;-77
2021/12/31 01:25:23;;;;;;;5.57;5.07;;;;;;;19.56;43.30;102010.56;5014228;28;20101;-78
2021/12/31 01:27:51;;;;;;;6.85;5.35;;;;;;;19.56;43.21;102002.50;5012587;28;20486;-77
2021/12/31 01:30:19;;;;;;;6.07;5.47;;;;;;;19.58;43.22;102010.50;5014285;28;20458;-77
2021/12/31 01:32:49;;;;;;;5.55;4.97;;;;;;;19.58;43.22;102018.56;5014151;28;20053;-77
2021/12/31 01:35:17;;;;;;;5.53;4.80;;;;;;;19.58;43.14;102011.34;5013763;28;20049;-77
2021/12/31 01:37:45;;;;;;;5.45;4.95;;;;;;;19.58;43.27;102003.28;5013869;28;20049;-77
2021/12/31 01:40:12;;;;;;;5.38;4.88;;;;;;;19.58;43.18;102000.59;5012283;28;20046;-77
2021/12/31 01:42:40;;;;;;;5.97;5.38;;;;;;;19.58;43.22;101997.91;5014125;28;20393;-77
2021/12/31 01:45:12;;;;;;;5.30;4.80;;;;;;;19.60;42.99;102004.03;5013870;28;20405;-77
2021/12/31 01:50:26;;;;;;;6.07;5.15;;;;;;;19.59;43.04;102001.47;5032187;28;20053;-77
2021/12/31 01:52:54;;;;;;;6.15;5.55;;;;;;;19.58;43.29;102000.59;5033449;28;20052;-77
2021/12/31 01:55:24;;;;;;;6.15;5.35;;;;;;;19.59;43.19;102002.31;5033023;28;20041;-78
2021/12/31 01:57:53;;;;;;;6.00;5.40;;;;;;;19.58;43.18;102000.59;5033476;28;20037;-77
2021/12/31 02:00:22;;;;;;;6.03;5.43;;;;;;;19.58;43.35;102011.34;5032718;28;20374;-77
2021/12/31 02:02:51;;;;;;;5.32;4.80;;;;;;;19.58;43.12;102002.44;5032853;28;20045;-77
2021/12/31 02:05:21;;;;;;;5.40;4.90;;;;;;;19.58;43.11;102008.66;5031815;28;20060;-77
2021/12/31 02:07:49;;;;;;;6.13;5.15;;;;;;;19.58;43.21;102003.28;5032992;28;20056;-77
2021/12/31 02:10:16;;;;;;;6.63;4.97;;;;;;;19.59;43.06;102002.31;5033004;28;20048;-77
2021/12/31 02:12:46;;;;;;;5.55;5.05;;;;;;;19.59;43.12;102006.84;5033213;28;20086;-78
2021/12/31 02:15:18;;;;;;;6.00;5.40;;;;;;;19.59;43.31;101996.09;5032747;28;20150;-78
2021/12/31 02:17:48;;;;;;;5.53;5.03;;;;;;;19.59;43.26;102006.84;5032931;28;20058;-78
2021/12/31 02:20:18;;;;;;;5.63;5.03;;;;;;;19.58;43.16;102011.34;5031668;28;20045;-78
2021/12/31 02:23:05;;;;;;;5.45;4.40;;;;;;;19.59;43.23;102009.53;5033132;28;20053;-78
2021/12/31 02:25:37;;;;;;;5.70;5.13;;;;;;;19.58;43.25;102000.59;5032741;28;20049;-78
2021/12/31 02:28:05;;;;;;;6.53;5.10;;;;;;;19.58;43.06;102000.59;5031556;28;20401;-78
2021/12/31 02:30:33;;;;;;;5.90;5.30;;;;;;;19.58;43.05;101994.38;5032959;28;20290;-76
2021/12/31 02:33:03;;;;;;;5.50;5.00;;;;;;;19.57;43.01;101993.53;5031403;28;20512;-76
2021/12/31 02:35:32;;;;;;;5.68;5.00;;;;;;;19.57;43.03;101996.19;5032924;28;20591;-76
2021/12/31 02:38:00;;;;;;;5.93;4.18;;;;;;;19.56;43.08;101999.84;5031993;28;20117;-76
2021/12/31 02:40:28;;;;;;;4.88;4.38;;;;;;;19.56;43.20;101996.28;5032432;28;20049;-77
2021/12/31 02:42:57;;;;;;;5.55;4.88;;;;;;;19.55;43.18;101998.13;5032394;28;20113;-77
2021/12/31 02:45:30;;;;;;;4.90;4.50;;;;;;;19.55;43.00;102000.81;5031531;28;20049;-77
2021/12/31 02:48:02;;;;;;;4.78;4.15;;;;;;;19.55;43.08;101995.44;5013840;28;20045;-77
2021/12/31 02:50:35;;;;;;;5.13;4.63;;;;;;;19.55;43.05;101997.25;5027416;28;20045;-76
2021/12/31 02:53:06;;;;;;;4.65;4.25;;;;;;;19.55;43.13;101992.75;5031720;28;20485;-76
2021/12/31 02:55:36;;;;;;;5.28;4.78;;;;;;;19.54;43.04;101996.41;5030944;28;20057;-76
2021/12/31 02:58:05;;;;;;;5.05;4.55;;;;;;;19.53;43.11;101992.00;5032363;28;20082;-77
2021/12/31 03:00:35;;;;;;;5.22;4.72;;;;;;;19.54;43.05;101980.28;5032610;28;20041;-76
2021/12/31 03:03:05;;;;;;;4.95;4.43;;;;;;;19.54;43.13;101974.91;5032123;28;20056;-76
2021/12/31 03:05:35;;;;;;;4.95;4.45;;;;;;;19.54;43.05;101980.28;5032313;28;20041;-76
2021/12/31 03:08:03;;;;;;;4.75;4.25;;;;;;;19.53;42.85;101975.88;5032493;28;20056;-76
2021/12/31 03:10:32;;;;;;;5.00;4.50;;;;;;;19.54;43.06;101971.38;5032100;28;20485;-76
2021/12/31 03:12:59;;;;;;;5.03;4.43;;;;;;;19.52;43.11;101977.69;5028124;28;20061;-76
2021/12/31 03:15:27;;;;;;;4.47;4.07;;;;;;;19.51;42.93;101984.03;5016640;28;20049;-77
2021/12/31 03:17:59;;;;;;;5.07;4.57;;;;;;;19.51;43.12;101975.97;5016495;28;20057;-77
2021/12/31 03:20:36;;;;;;;5.28;4.32;;;;;;;19.51;43.17;101983.19;5016319;28;20045;-77
2021/12/31 03:23:05;;;;;;;4.97;4.20;;;;;;;19.52;43.29;101982.22;5016542;28;20049;-76
2021/12/31 03:25:33;;;;;;;5.05;4.55;;;;;;;19.50;43.12;101979.63;5016238;28;20049;-76
2021/12/31 03:28:00;;;;;;;5.22;4.15;;;;;;;19.50;43.22;101978.78;5016355;28;20409;-77
2021/12/31 03:30:28;;;;;;;5.03;4.53;;;;;;;19.50;43.21;101978.78;5015773;28;20053;-76
2021/12/31 03:32:55;;;;;;;4.82;4.32;;;;;;;19.48;43.35;101978.88;5015926;28;20485;-76
2021/12/31 03:35:22;;;;;;;4.43;4.03;;;;;;;19.48;43.15;101973.50;5016136;28;20053;-76
2021/12/31 03:37:50;;;;;;;4.53;4.13;;;;;;;19.48;43.30;101969.94;5016170;28;20046;-76
2021/12/31 03:40:17;;;;;;;4.43;4.03;;;;;;;19.49;43.21;101977.06;5016178;28;20052;-76
2021/12/31 03:42:44;;;;;;;4.18;3.75;;;;;;;19.48;43.29;101961.91;5016159;28;20398;-76
2021/12/31 03:45:12;;;;;;;4.68;3.92;;;;;;;19.48;43.36;101969.94;5015554;28;20509;-76
2021/12/31 03:47:39;;;;;;;4.20;3.80;;;;;;;19.47;43.32;101963.72;5015568;28;20050;-76
2021/12/31 03:50:07;;;;;;;4.45;4.00;;;;;;;19.46;43.33;101959.31;5026897;28;20480;-77
2021/12/31 03:52:39;;;;;;;4.22;3.75;;;;;;;19.48;43.32;101961.91;5016728;28;20516;-76
2021/12/31 03:55:08;;;;;;;3.95;3.63;;;;;;;19.47;43.00;101957.50;5015460;28;20053;-76
2021/12/31 03:57:35;;;;;;;5.00;4.10;;;;;;;19.48;42.90;101965.44;5015978;28;20050;-76
2021/12/31 04:00:09;;;;;;;4.20;3.80;;;;;;;19.49;42.90;101969.00;5015521;28;20389;-76
2021/12/31 04:02:37;;;;;;;4.07;3.67;;;;;;;19.49;42.80;101966.31;5015369;28;20042;-76
2021/12/31 04:05:05;;;;;;;4.60;4.20;;;;;;;19.50;42.91;101954.59;5015751;28;20050;-76
2021/12/31 04:07:33;;;;;;;4.53;4.05;;;;;;;19.51;42.74;101967.06;4998298;28;20054;-76
2021/12/31 04:10:00;;;;;;;4.38;3.97;;;;;;;19.50;42.81;101968.03;5014201;28;20053;-76
2021/12/31 04:12:28;;;;;;;3.97;3.67;;;;;;;19.50;42.81;101973.41;5014977;28;20065;-76
2021/12/31 04:14:55;;;;;;;4.45;4.05;;;;;;;19.50;42.81;101982.31;5015636;28;20054;-76
2021/12/31 04:17:22;;;;;;;3.80;3.50;;;;;;;19.49;42.88;101977.94;5015286;28;20053;-76
2021/12/31 04:19:54;;;;;;;4.35;3.92;;;;;;;19.49;42.89;101975.25;5013958;28;20524;-76
2021/12/31 04:22:24;;;;;;;4.00;3.60;;;;;;;19.48;43.02;101989.59;5014903;28;20053;-77
2021/12/31 04:24:52;;;;;;;3.80;3.40;;;;;;;19.48;42.71;101994.97;5013618;28;20057;-77
2021/12/31 04:27:21;;;;;;;4.95;3.63;;;;;;;19.49;42.85;101995.88;5014821;28;20061;-76
2021/12/31 04:29:51;;;;;;;4.35;3.47;;;;;;;19.48;42.79;101994.97;5015103;28;20045;-76
2021/12/31 04:32:25;;;;;;;4.15;3.75;;;;;;;19.48;42.80;101991.44;5014825;28;20397;-77
2021/12/31 04:34:52;;;;;;;4.30;3.90;;;;;;;19.47;42.79;101993.28;5013232;28;20465;-76
2021/12/31 04:37:19;;;;;;;4.43;4.03;;;;;;;19.46;42.74;101983.50;5015178;28;20052;-76
2021/12/31 04:39:47;;;;;;;4.30;3.90;;;;;;;19.46;42.90;101988.88;5014705;28;20052;-76
2021/12/31 04:42:14;;;;;;;4.38;3.97;;;;;;;19.47;42.85;101985.22;5014560;28;20045;-77
2021/12/31 04:44:41;;;;;;;4.55;3.80;;;;;;;19.45;42.71;101981.78;5014694;28;20069;-77
2021/12/31 04:47:09;;;;;;;4.03;3.63;;;;;;;19.46;42.91;101988.00;5013485;28;20054;-76
2021/12/31 04:49:36;;;;;;;4.07;3.65;;;;;;;19.45;42.76;101986.31;5016362;28;20050;-76
2021/12/31 04:52:04;;;;;;;4.53;4.00;;;;;;;19.44;42.72;101982.72;5032935;28;20034;-76
2021/12/31 04:54:31;;;;;;;4.78;3.92;;;;;;;19.45;42.76;101989.00;5033411;28;20045;-77
2021/12/31 04:56:59;;;;;;;3.97;3.65;;;;;;;19.45;42.83;101978.25;5034223;28;20045;-77
2021/12/31 04:59:27;;;;;;;3.92;3.53;;;;;;;19.45;42.60;101980.94;5034084;28;20041;-77
2021/12/31 05:01:54;;;;;;;3.88;3.58;;;;;;;19.44;42.63;101982.72;5034257;28;20046;-77
2021/12/31 05:04:22;;;;;;;4.20;3.80;;;;;;;19.44;42.57;101977.34;5033872;28;20049;-77
2021/12/31 05:06:50;;;;;;;4.20;3.80;;;;;;;19.45;42.49;101984.47;5034149;28;20060;-77
2021/12/31 05:09:17;;;;;;;3.92;3.53;;;;;;;19.45;42.53;101983.63;5034343;28;20045;-77
2021/12/31 05:11:45;;;;;;;3.65;3.28;;;;;;;19.46;42.53;101990.69;5032347;28;20054;-77
2021/12/31 05:14:12;;;;;;;4.00;3.60;;;;;;;19.44;42.62;101985.41;5027954;28;20132;-77
2021/12/31 05:16:40;;;;;;;3.80;3.50;;;;;;;19.45;42.49;101983.63;5014535;28;20061;-77
2021/12/31 05:19:07;;;;;;;3.72;3.42;;;;;;;19.44;42.46;101984.56;5014091;28;20049;-76
2021/12/31 05:21:35;;;;;;;3.75;3.40;;;;;;;19.43;42.55;101989.06;5013967;28;20038;-76
2021/12/31 05:24:02;;;;;;;3.22;2.90;;;;;;;19.44;42.67;101988.09;5013988;28;20401;-77
2021/12/31 05:26:30;;;;;;;4.03;3.63;;;;;;;19.43;42.62;101997.13;5014019;28;20045;-76
2021/12/31 05:28:57;;;;;;;4.05;3.70;;;;;;;19.42;42.65;101994.56;5013906;28;20052;-77
2021/12/31 05:31:24;;;;;;;3.40;3.10;;;;;;;19.40;42.82;101999.16;5013588;28;20042;-77
2021/12/31 05:33:52;;;;;;;3.58;3.28;;;;;;;19.39;42.82;101992.94;5014128;28;20049;-77
2021/12/31 05:36:19;;;;;;;3.75;3.42;;;;;;;19.38;42.72;101991.22;5011979;28;20493;-77
2021/12/31 05:38:47;;;;;;;4.75;3.45;;;;;;;19.36;42.81;101987.75;5014194;28;20053;-76
2021/12/31 05:41:14;;;;;;;3.80;3.50;;;;;;;19.35;42.94;101980.69;5013272;28;20045;-76
2021/12/31 05:43:41;;;;;;;3.88;3.58;;;;;;;19.35;42.74;101983.34;5013633;28;20041;-76
2021/12/31 05:46:09;;;;;;;4.63;3.47;;;;;;;19.35;42.84;101982.50;5012342;28;20053;-77
2021/12/31 05:48:36;;;;;;;3.85;3.53;;;;;;;19.34;42.75;101986.16;5012007;28;20129;-77
2021/12/31 05:51:04;;;;;;;4.00;3.60;;;;;;;19.34;42.98;101983.47;5019123;28;20038;-76
2021/12/31 05:53:32;;;;;;;4.10;3.42;;;;;;;19.33;42.72;101979.06;5032533;28;20037;-76
2021/12/31 05:55:59;;;;;;;4.22;3.60;;;;;;;19.32;42.77;101980.88;5033162;28;20045;-76
2021/12/31 05:58:27;;;;;;;3.63;3.22;;;;;;;19.31;42.85;101981.84;5033540;28;20042;-76
2021/12/31 06:00:54;;;;;;;4.35;3.95;;;;;;;19.31;42.69;101986.38;5031812;28;20053;-76
2021/12/31 06:03:22;;;;;;;4.20;3.80;;;;;;;19.32;42.45;101990.75;5033208;28;20045;-76
2021/12/31 06:05:50;;;;;;;3.63;3.33;;;;;;;19.30;42.60;101987.34;5032294;28;20056;-76
2021/12/31 06:08:17;;;;;;;4.40;3.80;;;;;;;19.30;42.68;101990.88;5032923;28;20045;-76
2021/12/31 06:10:45;;;;;;;3.88;3.50;;;;;;;19.29;42.59;101993.69;5031854;28;20409;-76
2021/12/31 06:13:13;;;;;;;5.15;4.10;;;;;;;19.30;42.57;102000.75;5032853;28;20417;-76
2021/12/31 06:15:42;;;;;;;4.60;3.85;;;;;;;19.29;42.46;101999.03;5033310;28;20045;-77
2021/12/31 06:18:10;;;;;;;3.92;3.53;;;;;;;19.27;42.37;101999.13;5032082;28;20080;-76
2021/12/31 06:20:40;;;;;;;4.05;3.65;;;;;;;19.27;42.33;101997.31;5033185;28;20045;-76
2021/12/31 06:23:07;;;;;;;4.18;3.42;;;;;;;19.26;42.10;102000.09;5033396;28;20053;-76
2021/12/31 06:25:36;;;;;;;4.05;3.65;;;;;;;19.27;42.10;101997.31;5031238;28;20060;-76
2021/12/31 06:28:03;;;;;;;3.83;3.30;;;;;;;19.27;42.21;102005.34;5032806;28;20048;-76
2021/12/31 06:30:31;;;;;;;3.58;3.28;;;;;;;19.27;42.12;102005.34;5032935;28;20042;-76
2021/12/31 06:33:00;;;;;;;3.53;3.13;;;;;;;19.27;42.00;102004.50;5032502;28;20804;-76
2021/12/31 06:35:28;;;;;;;3.40;3.10;;;;;;;19.26;42.04;102010.84;5032945;28;20049;-77
2021/12/31 06:37:57;;;;;;;4.22;3.70;;;;;;;19.27;42.13;102007.19;5033006;28;20045;-78
2021/12/31 06:40:25;;;;;;;4.13;3.72;;;;;;;19.27;42.15;102007.19;5032399;28;20060;-78
2021/12/31 06:42:52;;;;;;;3.85;3.50;;;;;;;19.27;42.19;102013.41;5031385;28;20405;-79
2021/12/31 06:45:20;;;;;;;4.18;3.78;;;;;;;19.29;42.18;102009.78;5032738;28;20041;-78
2021/12/31 06:47:47;;;;;;;4.00;3.25;;;;;;;19.27;42.33;102016.09;5017160;28;20057;-77
2021/12/31 06:50:15;;;;;;;3.72;3.30;;;;;;;19.27;42.29;102020.59;5016714;28;20042;-78
2021/12/31 06:52:43;;;;;;;4.03;3.53;;;;;;;19.27;42.24;102025.97;5026782;28;20037;-77
2021/12/31 06:55:11;;;;;;;3.38;3.08;;;;;;;19.29;42.05;102024.06;5035694;28;20045;-76
2021/12/31 06:57:39;;;;;;;4.10;3.70;;;;;;;19.26;42.25;102014.38;5036280;28;20045;-76
2021/12/31 07:00:07;;;;;;;3.15;2.85;;;;;;;19.25;42.04;102020.72;5035679;28;20060;-77
2021/12/31 07:02:35;;;;;;;3.75;3.40;;;;;;;19.26;42.10;102025.13;5036217;28;20045;-78
2021/12/31 07:05:03;;;;;;;4.40;3.80;;;;;;;19.26;42.27;102024.25;5036317;28;20485;-77
2021/12/31 07:07:30;;;;;;;4.80;3.80;;;;;;;19.26;42.26;102027.81;5036412;28;20068;-77
2021/12/31 07:09:57;;;;;;;3.92;3.63;;;;;;;19.25;42.22;102034.16;5035838;28;20062;-77
2021/12/31 07:12:25;;;;;;;4.05;3.65;;;;;;;19.26;42.31;102037.69;5035975;28;20056;-77
2021/12/31 07:14:52;;;;;;;4.68;3.42;;;;;;;19.25;42.24;102033.28;5033162;28;20053;-77
2021/12/31 07:17:20;;;;;;;4.43;3.25;;;;;;;19.25;42.33;102030.59;5016461;28;20050;-77
2021/12/31 07:19:47;;;;;;;3.80;3.40;;;;;;;19.24;42.29;102034.22;4998957;28;20409;-77
2021/12/31 07:22:14;;;;;;;4.35;3.50;;;;;;;19.24;42.34;102044.97;5016074;28;20050;-77
2021/12/31 07:24:41;;;;;;;3.90;3.50;;;;;;;19.23;42.27;102043.25;5016087;28;20045;-76
2021/12/31 07:27:09;;;;;;;4.00;3.55;;;;;;;19.21;42.29;102051.41;5016652;28;20046;-76
2021/12/31 07:29:36;;;;;;;4.60;3.38;;;;;;;19.21;42.38;102056.78;5014819;28;20364;-76
2021/12/31 07:32:04;;;;;;;3.47;3.17;;;;;;;19.22;42.40;102060.34;5015946;28;20042;-76
2021/12/31 07:34:32;;;;;;;3.63;3.33;;;;;;;19.22;42.24;102063.88;5016039;28;20046;-76
2021/12/31 07:37:00;;;;;;;3.85;3.45;;;;;;;19.22;41.99;102069.25;5016189;28;20492;-77
2021/12/31 07:39:31;;;;;;;4.00;3.60;;;;;;;19.24;41.87;102071.81;5015781;28;20050;-76
2021/12/31 07:41:59;;;;;;;4.10;3.65;;;;;;;19.24;42.36;102074.50;5014767;28;20053;-76
2021/12/31 07:44:33;;;;;;;4.00;3.28;;;;;;;19.19;43.41;102072.13;5014769;28;20079;-77
2021/12/31 07:47:00;;;;;;;5.65;4.13;;;;;;;19.17;43.23;102074.06;5014298;28;20409;-77
2021/12/31 07:49:28;;;;;;;3.60;3.30;;;;;;;19.18;43.15;102081.16;5015745;28;20050;-77
2021/12/31 07:51:55;;;;;;;5.90;4.13;;;;;;;19.19;42.94;102087.38;5015645;28;20076;-77
2021/12/31 07:54:23;;;;;;;3.97;3.58;;;;;;;19.15;43.15;102089.38;5031001;28;20038;-77
2021/12/31 07:56:50;;;;;;;4.85;3.88;;;;;;;19.14;42.91;102095.72;5035703;28;20056;-77
2021/12/31 07:59:18;;;;;;;4.03;3.60;;;;;;;19.14;42.80;102089.50;5034856;28;20056;-77
2021/12/31 08:01:45;;;;;;;6.20;3.70;;;;;;;19.14;42.64;102092.19;5034542;28;20065;-77
2021/12/31 08:04:13;;;;;;;4.50;4.05;;;;;;;19.12;42.57;102092.28;5035631;28;20045;-77
2021/12/31 08:06:40;;;;;;;3.65;3.22;;;;;;;19.13;42.69;102096.69;5035238;28;20049;-77
2021/12/31 08:09:07;;;;;;;5.43;4.03;;;;;;;19.13;42.42;102093.16;5035300;28;20056;-77
2021/12/31 08:11:34;;;;;;;4.78;4.05;;;;;;;19.13;42.46;102095.84;5035527;28;20049;-77
2021/12/31 08:14:02;;;;;;;4.30;3.90;;;;;;;19.14;42.17;102106.47;5035021;28;20397;-77
2021/12/31 08:16:30;;;;;;;3.65;3.35;;;;;;;19.13;42.48;102107.44;5035479;28;20481;-77
2021/12/31 08:18:57;;;;;;;3.70;3.40;;;;;;;19.13;42.40;102111.94;5035602;28;20057;-77
2021/12/31 08:21:24;;;;;;;3.78;3.38;;;;;;;19.13;42.35;102110.13;5035147;28;20049;-77
2021/12/31 08:23:52;;;;;;;3.97;3.58;;;;;;;19.12;42.31;102103.03;5029434;28;20052;-77
2021/12/31 08:26:20;;;;;;;4.47;4.10;;;;;;;19.13;42.26;102109.25;5015221;28;20045;-77
2021/12/31 08:28:47;;;;;;;5.10;4.40;;;;;;;19.13;42.27;102107.44;5014591;28;20477;-77
2021/12/31 08:31:14;;;;;;;3.50;3.20;;;;;;;19.14;42.28;102106.47;5014802;28;20053;-77
2021/12/31 08:33:42;;;;;;;4.07;3.67;;;;;;;19.16;42.09;102112.63;5014124;28;20041;-76
2021/12/31 08:36:09;;;;;;;4.25;3.53;;;;;;;19.13;41.88;102107.44;5014683;28;20512;-76
2021/12/31 08:38:37;;;;;;;4.03;3.63;;;;;;;19.12;42.08;102111.09;5014781;28;20517;-77
2021/12/31 08:41:04;;;;;;;4.97;3.85;;;;;;;19.12;41.79;102111.09;5013997;28;20106;-77
2021/12/31 08:43:52;;;;;;;4.03;3.63;;;;;;;19.14;41.76;102106.47;5013543;28;20050;-77
2021/12/31 08:46:21;;;;;;;4.30;3.80;;;;;;;19.14;41.74;102103.78;5014545;28;20049;-77
2021/12/31 08:48:49;;;;;;;4.22;3.80;;;;;;;19.15;41.82;102110.88;5014793;28;20056;-77
2021/12/31 08:51:16;;;;;;;4.45;3.85;;;;;;;19.15;41.89;102113.56;5014431;28;20041;-77
2021/12/31 08:53:44;;;;;;;5.35;4.22;;;;;;;19.15;41.91;102124.28;5016937;28;20424;-78
2021/12/31 08:56:11;;;;;;;5.05;4.35;;;;;;;19.17;41.66;102119.69;5030606;28;20038;-76
2021/12/31 08:58:39;;;;;;;12.25;7.63;;;;;;;19.02;36.40;102109.94;5033463;28;20049;-77
2021/12/31 09:01:06;;;;;;;7.85;7.05;;;;;;;18.49;36.78;102100.75;5034202;28;20049;-78
2021/12/31 09:03:33;;;;;;;4.72;4.22;;;;;;;18.42;42.58;102112.81;5033253;28;20412;-76
2021/12/31 09:06:01;;;;;;;5.78;4.53;;;;;;;18.50;42.57;102113.19;5034844;28;20504;-77
2021/12/31 09:08:29;;;;;;;4.85;4.35;;;;;;;18.58;42.56;102115.41;5033978;28;20041;-77
2021/12/31 09:10:57;;;;;;;7.25;4.47;;;;;;;18.64;42.35;102121.25;5033915;28;20050;-76
2021/12/31 09:13:26;;;;;;;7.15;4.50;;;;;;;18.71;42.54;102122.63;5034047;28;20054;-76
2021/12/31 09:15:55;;;;;;;5.00;4.50;;;;;;;18.77;42.41;102119.56;5025048;28;20099;-76
2021/12/31 09:18:22;;;;;;;13.50;4.65;;;;;;;18.82;42.11;102121.09;5013843;28;20041;-76
2021/12/31 09:20:52;;;;;;;5.47;4.32;;;;;;;18.87;42.18;102121.66;5012476;28;20054;-76
2021/12/31 09:23:20;;;;;;;6.10;4.40;;;;;;;18.89;41.84;102130.47;5014700;28;20069;-76
2021/12/31 09:25:49;;;;;;;5.70;4.20;;;;;;;18.91;41.86;102129.41;5014065;28;20050;-76
2021/12/31 09:28:16;;;;;;;4.38;3.97;;;;;;;18.93;41.72;102138.25;5013919;28;20049;-76
2021/12/31 09:30:44;;;;;;;6.68;4.03;;;;;;;18.93;41.81;102135.56;5013029;28;20057;-76
2021/12/31 09:33:11;;;;;;;5.95;4.28;;;;;;;18.94;41.69;102123.00;5012685;28;20053;-75
2021/12/31 09:35:39;;;;;;;4.82;4.13;;;;;;;18.94;41.67;102115.81;5012613;28;20077;-75
2021/12/31 09:38:09;;;;;;;7.30;5.70;;;;;;;18.86;37.04;102110.06;5012501;28;20053;-75
2021/12/31 09:40:37;;;;;;;5.25;4.50;;;;;;;18.79;39.92;102114.09;5013961;28;20046;-75
2021/12/31 09:43:11;;;;;;;4.72;4.22;;;;;;;18.80;41.07;102118.50;5013163;28;20152;-77
2021/12/31 09:45:42;;;;;;;4.80;3.70;;;;;;;18.83;41.34;102115.63;5012168;28;20053;-76
2021/12/31 09:48:28;;;;;;;5.43;4.20;;;;;;;18.87;41.50;102102.88;5013514;28;20049;-76
2021/12/31 09:50:56;;;;;;;3.97;3.63;;;;;;;18.92;41.75;102104.31;5012565;28;20501;-76
2021/12/31 09:53:26;;;;;;;5.30;4.40;;;;;;;18.95;41.68;102100.56;5014138;28;20045;-76
2021/12/31 09:55:55;;;;;;;4.85;4.35;;;;;;;18.99;42.20;102115.50;5023764;28;20048;-76
2021/12/31 09:58:25;;;;;;;4.30;3.90;;;;;;;18.97;42.18;102107.56;5022694;28;20042;-76
2021/12/31 10:00:57;;;;;;;4.88;4.18;;;;;;;18.97;41.88;102115.63;5013710;28;20045;-76
2021/12/31 10:03:28;;;;;;;6.72;5.07;;;;;;;18.93;41.31;102116.78;5013231;28;20068;-76
2021/12/31 10:06:01;;;;;;;5.75;4.75;;;;;;;18.91;40.72;102117.81;5013055;28;20100;-77
2021/12/31 10:08:40;;;;;;;4.60;4.20;;;;;;;18.88;41.35;102118.88;5014103;28;20061;-76
2021/12/31 10:11:11;;;;;;;10.43;5.15;;;;;;;18.86;40.32;102112.75;5012452;28;20050;-77
2021/12/31 10:13:44;;;;;;;5.45;4.78;;;;;;;18.83;40.24;102107.56;5011698;28;20053;-77
2021/12/31 10:16:25;;;;;;;7.28;5.00;;;;;;;18.83;41.04;102120.13;5011840;28;20056;-77
2021/12/31 10:19:05;;;;;;;5.20;4.60;;;;;;;18.85;41.67;102112.84;5013442;28;20482;-78
2021/12/31 10:21:38;;;;;;;5.20;4.55;;;;;;;18.88;41.24;102107.25;5012941;28;20057;-78
2021/12/31 10:24:33;;;;;;;6.45;4.72;;;;;;;18.92;41.87;102100.75;5014580;28;20429;-78
2021/12/31 10:27:09;;;;;;;4.95;4.45;;;;;;;18.96;41.65;102099.63;5015070;28;20041;-77
2021/12/31 10:29:55;;;;;;;7.40;5.43;;;;;;;18.99;41.86;102096.72;5013331;28;20049;-78
2021/12/31 10:32:25;;;;;;;5.32;4.32;;;;;;;18.99;41.45;102096.72;5012992;28;20046;-77
2021/12/31 10:34:53;;;;;;;6.00;4.30;;;;;;;19.01;41.66;102092.97;5013110;28;20401;-77
2021/12/31 10:37:24;;;;;;;5.55;4.65;;;;;;;19.03;41.53;102079.44;5012962;28;20069;-77
2021/12/31 10:40:00;;;;;;;5.15;4.45;;;;;;;19.07;41.46;102070.25;5013136;28;20046;-78
2021/12/31 10:42:29;;;;;;;4.88;4.38;;;;;;;19.10;41.49;102072.72;5012985;28;20060;-78
2021/12/31 10:44:58;;;;;;;9.48;4.68;;;;;;;19.12;41.48;102078.00;5013698;28;20073;-78
2021/12/31 10:47:42;;;;;;;5.38;4.88;;;;;;;19.12;41.51;102080.66;5046350;28;20168;-77
2021/12/31 10:50:11;;;;;;;;;;;;;;;19.11;42.04;102071.75;5014071;28;20046;-83
2021/12/31 10:52:53;;;;;;;7.63;4.75;;;;;;;19.12;41.89;102064.56;5011685;28;19921;-78
2021/12/31 10:55:26;;;;;;;5.43;4.88;;;;;;;19.12;42.19;102070.81;5013047;28;20042;-78
2021/12/31 10:58:03;;;;;;;5.68;5.07;;;;;;;19.12;42.24;102067.25;5027290;28;20457;-78
2021/12/31 11:00:40;;;;;;;5.85;5.18;;;;;;;19.11;42.64;102066.41;5032300;28;20052;-76
2021/12/31 11:03:09;;;;;;;7.93;4.57;;;;;;;19.10;42.54;102050.41;5032392;28;20049;-76
2021/12/31 11:05:37;;;;;;;6.38;4.70;;;;;;;19.11;42.86;102057.47;5032202;28;20041;-76
2021/12/31 11:08:07;;;;;;;5.85;5.03;;;;;;;19.09;42.80;102059.44;5032629;28;20049;-76
2021/12/31 11:10:39;;;;;;;5.38;4.88;;;;;;;19.08;42.85;102050.50;5031451;28;20100;-76
2021/12/31 11:13:19;;;;;;;7.47;5.28;;;;;;;19.08;42.97;102046.94;5032643;28;20058;-77
2021/12/31 11:15:50;;;;;;;5.18;4.65;;;;;;;19.08;43.21;102050.50;5028182;28;20054;-76
2021/12/31 11:18:23;;;;;;;7.18;5.20;;;;;;;19.08;42.95;102044.25;5012798;28;20547;-76
2021/12/31 11:20:54;;;;;;;7.53;5.07;;;;;;;19.08;42.99;102045.16;5012905;28;20489;-76
2021/12/31 11:23:26;;;;;;;6.47;5.85;;;;;;;19.09;42.72;102033.44;5013243;28;20042;-76
2021/12/31 11:26:00;;;;;;;6.20;5.20;;;;;;;19.09;42.96;102033.44;5012640;28;20046;-76
2021/12/31 11:28:32;;;;;;;5.38;4.88;;;;;;;19.12;42.74;102030.56;5012341;28;20707;-76
2021/12/31 11:31:20;;;;;;;6.55;5.00;;;;;;;19.13;42.74;102031.41;5012853;28;20454;-76
2021/12/31 11:34:06;;;;;;;5.57;5.07;;;;;;;19.15;42.41;102027.66;5012596;28;20054;-77
2021/12/31 11:36:37;;;;;;;7.28;4.93;;;;;;;19.15;42.82;102019.59;5015036;28;20053;-76
2021/12/31 11:39:23;;;;;;;5.63;5.13;;;;;;;19.16;42.78;102024.03;5016040;28;20057;-76